createdAt,value
2024-01-21T00:01:42.229Z,-4.53
2024-01-21T00:04:44.578Z,-4.41
2024-01-21T00:07:47.295Z,-4.73
2024-01-21T00:10:49.670Z,-4.85
2024-01-21T00:13:52.054Z,-4.70
2024-01-21T00:16:54.439Z,-4.88
2024-01-21T00:19:57.601Z,-4.86
2024-01-21T00:22:59.975Z,-5.01
2024-01-21T00:26:02.447Z,-4.94
2024-01-21T00:29:04.877Z,-5.02
2024-01-21T00:32:07.295Z,-5.13
2024-01-21T00:35:09.838Z,-5.06
2024-01-21T00:38:12.327Z,-5.22
2024-01-21T00:41:15.951Z,-5.23
2024-01-21T00:44:20.039Z,-5.05
2024-01-21T00:47:23.175Z,-5.06
2024-01-21T00:50:25.584Z,-4.95
2024-01-21T00:53:28.164Z,-5.05
2024-01-21T00:56:30.603Z,-5.08
2024-01-21T00:59:32.985Z,-5.08
2024-01-21T01:02:35.361Z,-5.12
2024-01-21T01:05:38.049Z,-5.35
2024-01-21T01:08:40.516Z,-5.16
2024-01-21T01:11:42.900Z,-5.57
2024-01-21T01:14:45.465Z,-5.23
2024-01-21T01:17:48.830Z,-5.40
2024-01-21T01:20:51.382Z,-5.25
2024-01-21T01:23:53.756Z,-5.20
2024-01-21T01:26:56.142Z,-5.51
2024-01-21T01:29:58.528Z,-5.65
2024-01-21T01:33:00.948Z,-5.46
2024-01-21T01:36:03.832Z,-5.28
2024-01-21T01:39:08.388Z,-5.41
2024-01-21T01:42:10.993Z,-5.59
2024-01-21T01:45:13.431Z,-5.63
2024-01-21T01:48:16.028Z,-5.47
2024-01-21T01:51:18.766Z,-5.58
2024-01-21T01:54:24.351Z,-5.39
2024-01-21T01:57:27.406Z,-5.60
2024-01-21T02:00:30.867Z,-5.51
2024-01-21T02:03:33.942Z,-5.63
2024-01-21T02:06:36.431Z,-5.52
2024-01-21T02:09:38.879Z,-5.54
2024-01-21T02:12:43.591Z,-5.80
2024-01-21T02:15:46.145Z,-5.77
2024-01-21T02:18:50.859Z,-5.62
2024-01-21T02:21:53.874Z,-5.63
2024-01-21T02:24:56.291Z,-5.67
2024-01-21T02:27:58.656Z,-5.62
2024-01-21T02:31:01.079Z,-5.85
2024-01-21T02:34:03.514Z,-5.49
2024-01-21T02:37:05.936Z,-5.54
2024-01-21T02:40:09.059Z,-5.46
2024-01-21T02:43:11.511Z,-5.33
2024-01-21T02:46:18.280Z,-5.51
2024-01-21T02:49:22.482Z,-5.72
2024-01-21T02:52:24.880Z,-5.75
2024-01-21T02:55:27.256Z,-5.55
2024-01-21T02:58:29.633Z,-5.67
2024-01-21T03:01:34.651Z,-5.95
2024-01-21T03:04:37.097Z,-5.82
2024-01-21T03:07:39.511Z,-5.69
2024-01-21T03:10:42.263Z,-5.71
2024-01-21T03:13:44.639Z,-5.99
2024-01-21T03:16:47.028Z,-5.93
2024-01-21T03:19:49.466Z,-5.53
2024-01-21T03:22:52.019Z,-5.50
2024-01-21T03:25:54.833Z,-6.11
2024-01-21T03:28:58.281Z,-5.89
2024-01-21T03:32:00.621Z,-5.84
2024-01-21T03:35:03.042Z,-5.72
2024-01-21T03:38:05.481Z,-5.76
2024-01-21T03:41:07.856Z,-5.77
2024-01-21T03:44:10.204Z,-5.85
2024-01-21T03:47:12.606Z,-6.02
2024-01-21T03:50:19.584Z,-6.00
2024-01-21T03:53:21.916Z,-5.97
2024-01-21T03:56:24.479Z,-5.92
2024-01-21T03:59:26.890Z,-5.83
2024-01-21T04:02:31.259Z,-5.93
2024-01-21T04:05:33.658Z,-5.94
2024-01-21T04:08:36.101Z,-5.90
2024-01-21T04:11:38.531Z,-6.09
2024-01-21T04:14:40.941Z,-5.90
2024-01-21T04:17:43.444Z,-6.13
2024-01-21T04:20:45.939Z,-5.89
2024-01-21T04:23:48.322Z,-6.01
2024-01-21T04:26:50.751Z,-5.99
2024-01-21T04:29:53.151Z,-5.97
2024-01-21T04:32:55.951Z,-6.33
2024-01-21T04:35:58.541Z,-6.23
2024-01-21T04:39:01.131Z,-6.29
2024-01-21T04:42:03.617Z,-6.13
2024-01-21T04:45:08.281Z,-6.28
2024-01-21T04:48:11.824Z,-6.43
2024-01-21T04:51:15.203Z,-6.21
2024-01-21T04:54:17.745Z,-6.40
2024-01-21T04:57:20.186Z,-6.49
2024-01-21T05:00:22.640Z,-6.47
2024-01-21T05:03:25.137Z,-5.95
2024-01-21T05:06:27.752Z,-5.87
2024-01-21T05:09:30.155Z,-5.74
2024-01-21T05:12:32.629Z,-5.96
2024-01-21T05:15:35.041Z,-5.80
2024-01-21T05:18:41.139Z,-5.80
2024-01-21T05:21:43.642Z,-5.57
2024-01-21T05:24:46.132Z,-5.61
2024-01-21T05:27:48.565Z,-5.65
2024-01-21T05:30:51.018Z,-5.62
2024-01-21T05:33:53.473Z,-5.30
2024-01-21T05:36:56.010Z,-4.89
2024-01-21T05:39:59.635Z,-4.65
2024-01-21T05:43:03.190Z,-4.55
2024-01-21T05:46:05.623Z,-4.57
2024-01-21T05:49:08.054Z,-4.17
2024-01-21T05:52:10.488Z,-4.21
2024-01-21T05:55:12.977Z,-4.22
2024-01-21T05:58:16.681Z,-3.94
2024-01-21T06:01:19.179Z,-3.81
2024-01-21T06:04:21.931Z,-3.64
2024-01-21T06:07:24.773Z,-3.57
2024-01-21T06:10:27.298Z,-3.42
2024-01-21T06:13:29.786Z,-4.04
2024-01-21T06:16:32.136Z,-3.88
2024-01-21T06:19:34.572Z,-3.94
2024-01-21T06:22:37.692Z,-4.12
2024-01-21T06:25:40.329Z,-3.88
2024-01-21T06:28:42.771Z,-3.81
2024-01-21T06:31:45.239Z,-3.83
2024-01-21T06:34:47.701Z,-3.95
2024-01-21T06:37:50.134Z,-3.84
2024-01-21T06:40:54.014Z,-3.60
2024-01-21T06:43:56.410Z,-3.65
2024-01-21T06:46:58.793Z,-3.65
2024-01-21T06:50:01.149Z,-3.65
2024-01-21T06:53:05.155Z,-3.38
2024-01-21T06:56:09.454Z,-3.55
2024-01-21T06:59:13.331Z,-3.48
2024-01-21T07:02:16.007Z,-3.39
2024-01-21T07:05:18.363Z,-3.28
2024-01-21T07:08:20.818Z,-3.25
2024-01-21T07:11:23.239Z,-3.32
2024-01-21T07:14:25.599Z,-3.37
2024-01-21T07:17:28.042Z,-3.10
2024-01-21T07:20:30.508Z,-3.06
2024-01-21T07:23:32.895Z,-2.90
2024-01-21T07:26:35.410Z,-2.78
2024-01-21T07:29:37.798Z,-2.75
2024-01-21T07:32:40.906Z,-2.70
2024-01-21T07:35:43.480Z,-2.71
2024-01-21T07:38:45.852Z,-2.66
2024-01-21T07:41:48.234Z,-2.56
2024-01-21T07:44:50.993Z,-2.61
2024-01-21T07:47:53.554Z,-2.47
2024-01-21T07:50:55.978Z,-2.76
2024-01-21T07:53:58.349Z,-2.51
2024-01-21T07:57:00.802Z,-2.09
2024-01-21T08:00:04.718Z,-2.02
2024-01-21T08:03:07.955Z,-2.18
2024-01-21T08:06:11.205Z,-2.17
2024-01-21T08:09:13.882Z,-2.01
2024-01-21T08:12:16.303Z,-2.00
2024-01-21T08:15:18.793Z,-1.94
2024-01-21T08:18:21.338Z,-2.24
2024-01-21T08:21:23.784Z,-2.09
2024-01-21T08:24:26.216Z,-1.83
2024-01-21T08:27:29.863Z,-1.67
2024-01-21T08:30:32.360Z,-1.42
2024-01-21T08:33:37.916Z,-1.27
2024-01-21T08:36:40.636Z,-0.99
2024-01-21T08:39:46.505Z,-0.40
2024-01-21T08:42:53.313Z,-0.28
2024-01-21T08:45:56.976Z,-0.14
2024-01-21T08:48:59.612Z,-0.54
2024-01-21T08:52:02.240Z,-0.04
2024-01-21T08:55:05.572Z,0.44
2024-01-21T08:58:08.063Z,0.45
2024-01-21T09:01:10.520Z,0.46
2024-01-21T09:04:13.020Z,-0.01
2024-01-21T09:07:16.978Z,-0.04
2024-01-21T09:10:21.962Z,-0.18
2024-01-21T09:13:24.339Z,0.08
2024-01-21T09:16:26.784Z,-0.58
2024-01-21T09:19:29.383Z,-0.30
2024-01-21T09:22:31.973Z,-0.46
2024-01-21T09:25:34.425Z,-0.20
2024-01-21T09:28:37.961Z,-0.33
2024-01-21T09:31:40.710Z,-0.05
2024-01-21T09:34:44.946Z,-0.31
2024-01-21T09:37:47.392Z,-0.34
2024-01-21T09:40:58.932Z,-0.41
2024-01-21T09:44:02.590Z,-0.64
2024-01-21T09:47:05.149Z,-0.29
2024-01-21T09:50:09.367Z,0.05
2024-01-21T09:53:11.798Z,0.21
2024-01-21T09:56:14.452Z,-0.15
2024-01-21T09:59:17.476Z,0.08
2024-01-21T10:02:20.144Z,0.20
2024-01-21T10:05:22.538Z,-0.23
2024-01-21T10:08:24.974Z,0.39
2024-01-21T10:11:27.461Z,0.27
2024-01-21T10:14:30.556Z,0.59
2024-01-21T10:17:33.045Z,0.61
2024-01-21T10:20:37.823Z,0.51
2024-01-21T10:23:41.897Z,0.77
2024-01-21T10:26:47.039Z,0.87
2024-01-21T10:29:49.536Z,0.87
2024-01-21T10:32:51.984Z,1.11
2024-01-21T10:35:57.568Z,0.77
2024-01-21T10:39:03.669Z,0.86
2024-01-21T10:42:07.774Z,0.99
2024-01-21T10:45:10.594Z,1.01
2024-01-21T10:48:16.675Z,0.95
2024-01-21T10:51:20.563Z,1.25
2024-01-21T10:54:26.222Z,1.30
2024-01-21T10:57:28.636Z,1.22
2024-01-21T11:00:31.199Z,1.42
2024-01-21T11:03:35.105Z,1.36
2024-01-21T11:06:37.785Z,1.44
2024-01-21T11:09:42.132Z,1.33
2024-01-21T11:12:46.126Z,1.28
2024-01-21T11:15:49.087Z,1.27
2024-01-21T11:18:51.636Z,1.30
2024-01-21T11:21:57.250Z,1.24
2024-01-21T11:24:59.810Z,1.33
2024-01-21T11:28:05.002Z,1.35
2024-01-21T11:31:08.666Z,1.38
2024-01-21T11:34:12.676Z,0.93
2024-01-21T11:37:15.497Z,0.58
2024-01-21T11:40:18.030Z,0.79
2024-01-21T11:43:20.573Z,1.23
2024-01-21T11:46:24.051Z,1.30
2024-01-21T11:49:26.974Z,1.47
2024-01-21T11:52:29.488Z,1.65
2024-01-21T11:55:31.933Z,2.07
2024-01-21T11:58:34.391Z,2.38
2024-01-21T12:01:41.067Z,2.77
2024-01-21T12:04:46.800Z,3.85
2024-01-21T12:07:49.279Z,4.04
2024-01-21T12:10:51.761Z,3.80
2024-01-21T12:13:54.240Z,3.72
2024-01-21T12:16:56.689Z,3.31
2024-01-21T12:19:59.261Z,3.27
2024-01-21T12:23:01.874Z,3.20
2024-01-21T12:26:05.163Z,2.95
2024-01-21T12:29:12.159Z,3.24
2024-01-21T12:32:14.595Z,4.65
2024-01-21T12:35:17.392Z,3.60
2024-01-21T12:38:20.961Z,2.87
2024-01-21T12:41:23.522Z,2.66
2024-01-21T12:44:26.034Z,3.56
2024-01-21T12:47:28.513Z,4.92
2024-01-21T12:50:31.447Z,5.04
2024-01-21T12:53:33.869Z,5.61
2024-01-21T12:56:36.857Z,5.43
2024-01-21T12:59:39.377Z,5.90
2024-01-21T13:02:41.866Z,5.79
2024-01-21T13:05:44.993Z,5.40
2024-01-21T13:08:48.209Z,5.49
2024-01-21T13:11:51.766Z,4.59
2024-01-21T13:14:56.046Z,4.01
2024-01-21T13:17:58.849Z,3.19
2024-01-21T13:21:01.313Z,3.14
2024-01-21T13:24:04.593Z,2.91
2024-01-21T13:27:13.110Z,2.70
2024-01-21T13:30:34.175Z,3.47
2024-01-21T13:33:38.464Z,4.67
2024-01-21T13:36:41.023Z,5.26
2024-01-21T13:39:43.571Z,5.74
2024-01-21T13:42:47.076Z,6.03
2024-01-21T13:45:50.125Z,6.27
2024-01-21T13:48:52.877Z,6.16
2024-01-21T13:51:55.751Z,6.04
2024-01-21T13:54:58.880Z,5.95
2024-01-21T13:58:03.686Z,5.87
2024-01-21T14:01:06.222Z,5.70
2024-01-21T14:04:08.875Z,5.66
2024-01-21T14:07:11.565Z,4.93
2024-01-21T14:10:14.375Z,5.35
2024-01-21T14:13:16.831Z,5.10
2024-01-21T14:16:19.534Z,5.14
2024-01-21T14:19:22.054Z,4.97
2024-01-21T14:22:24.578Z,4.57
2024-01-21T14:25:37.551Z,3.48
2024-01-21T14:28:43.752Z,3.13
2024-01-21T14:31:46.398Z,3.01
2024-01-21T14:34:49.212Z,2.66
2024-01-21T14:37:51.756Z,2.24
2024-01-21T14:40:55.680Z,1.63
2024-01-21T14:43:58.421Z,0.80
2024-01-21T14:47:00.964Z,0.82
2024-01-21T14:50:04.622Z,0.60
2024-01-21T14:53:07.476Z,0.18
2024-01-21T14:56:10.204Z,0.01
2024-01-21T14:59:12.666Z,-0.13
2024-01-21T15:02:15.258Z,-0.26
2024-01-21T15:05:17.904Z,-0.41
2024-01-21T15:08:20.465Z,-0.43
2024-01-21T15:11:25.773Z,-0.53
2024-01-21T15:14:39.809Z,-0.66
2024-01-21T15:17:42.197Z,-0.94
2024-01-21T15:20:44.827Z,-1.01
2024-01-21T15:23:47.463Z,-1.02
2024-01-21T15:26:50.298Z,-1.05
2024-01-21T15:29:53.056Z,-1.34
2024-01-21T15:32:56.726Z,-1.40
2024-01-21T15:35:59.334Z,-1.59
2024-01-21T15:39:01.713Z,-1.44
2024-01-21T15:42:04.406Z,-1.50
2024-01-21T15:45:16.077Z,-1.62
2024-01-21T15:48:18.865Z,-1.92
2024-01-21T15:51:23.271Z,-1.79
2024-01-21T15:54:26.143Z,-1.91
2024-01-21T15:57:28.981Z,-1.95
2024-01-21T16:00:34.332Z,-2.03
2024-01-21T16:03:37.040Z,-1.95
2024-01-21T16:06:39.933Z,-2.04
2024-01-21T16:09:42.644Z,-2.07
2024-01-21T16:12:48.098Z,-2.29
2024-01-21T16:15:54.518Z,-2.16
2024-01-21T16:18:58.944Z,-2.15
2024-01-21T16:22:01.842Z,-2.54
2024-01-21T16:25:05.926Z,-2.37
2024-01-21T16:28:08.496Z,-2.31
2024-01-21T16:31:11.242Z,-2.43
2024-01-21T16:34:14.444Z,-2.35
2024-01-21T16:37:16.832Z,-2.38
2024-01-21T16:40:19.375Z,-2.36
2024-01-21T16:43:22.814Z,-2.52
2024-01-21T16:46:26.651Z,-2.49
2024-01-21T16:49:29.209Z,-2.37
2024-01-21T16:52:34.184Z,-2.42
2024-01-21T16:55:36.622Z,-2.74
2024-01-21T16:58:39.406Z,-2.52
2024-01-21T17:01:52.845Z,-2.68
2024-01-21T17:04:57.446Z,-2.68
2024-01-21T17:08:00.113Z,-2.61
2024-01-21T17:11:10.793Z,-2.45
2024-01-21T17:14:18.617Z,-2.61
2024-01-21T17:17:21.800Z,-2.66
2024-01-21T17:20:24.251Z,-2.75
2024-01-21T17:23:26.705Z,-2.88
2024-01-21T17:26:29.803Z,-2.78
2024-01-21T17:29:32.570Z,-2.97
2024-01-21T17:32:35.322Z,-2.99
2024-01-21T17:35:38.224Z,-3.20
2024-01-21T17:38:41.214Z,-2.99
2024-01-21T17:41:43.943Z,-2.96
2024-01-21T17:44:53.215Z,-3.30
2024-01-21T17:47:56.365Z,-3.05
2024-01-21T17:50:59.048Z,-3.12
2024-01-21T17:54:01.605Z,-3.13
2024-01-21T17:57:05.097Z,-3.28
2024-01-21T18:00:08.529Z,-3.12
2024-01-21T18:03:18.498Z,-3.26
2024-01-21T18:06:21.734Z,-3.33
2024-01-21T18:09:24.474Z,-3.58
2024-01-21T18:12:27.674Z,-3.55
2024-01-21T18:15:30.495Z,-3.48
2024-01-21T18:18:32.906Z,-3.50
2024-01-21T18:21:37.280Z,-3.66
2024-01-21T18:24:41.155Z,-3.69
2024-01-21T18:27:43.785Z,-3.73
2024-01-21T18:30:46.911Z,-3.59
2024-01-21T18:33:49.428Z,-3.70
2024-01-21T18:36:51.884Z,-3.75
2024-01-21T18:39:56.091Z,-3.78
2024-01-21T18:43:00.341Z,-3.78
2024-01-21T18:46:03.057Z,-3.80
2024-01-21T18:49:06.019Z,-3.75
2024-01-21T18:52:09.377Z,-3.79
2024-01-21T18:55:12.610Z,-3.77
2024-01-21T18:58:27.344Z,-4.14
2024-01-21T19:01:30.795Z,-4.08
2024-01-21T19:04:38.682Z,-4.02
2024-01-21T19:07:45.706Z,-4.11
2024-01-21T19:10:49.345Z,-4.00
2024-01-21T19:13:53.166Z,-4.16
2024-01-21T19:16:55.715Z,-4.29
2024-01-21T19:19:58.905Z,-4.27
2024-01-21T19:23:01.605Z,-4.22
2024-01-21T19:26:06.310Z,-4.25
2024-01-21T19:29:09.164Z,-4.02
2024-01-21T19:32:11.794Z,-4.06
2024-01-21T19:35:14.435Z,-4.07
2024-01-21T19:38:17.062Z,-4.43
2024-01-21T19:41:21.862Z,-4.11
2024-01-21T19:44:24.343Z,-4.10
2024-01-21T19:47:26.722Z,-4.11
2024-01-21T19:50:29.137Z,-4.25
2024-01-21T19:53:31.670Z,-4.12
2024-01-21T19:56:35.486Z,-4.34
2024-01-21T19:59:38.587Z,-4.18
2024-01-21T20:02:41.320Z,-4.38
2024-01-21T20:05:44.238Z,-4.15
2024-01-21T20:08:47.171Z,-4.19
2024-01-21T20:11:50.071Z,-4.26
2024-01-21T20:14:52.538Z,-4.32
2024-01-21T20:17:55.183Z,-4.37
2024-01-21T20:20:57.709Z,-4.58
2024-01-21T20:24:00.327Z,-4.57
2024-01-21T20:27:03.045Z,-4.37
2024-01-21T20:30:06.865Z,-4.53
2024-01-21T20:33:09.774Z,-4.32
2024-01-21T20:36:12.614Z,-4.49
2024-01-21T20:39:15.463Z,-4.43
2024-01-21T20:42:18.109Z,-4.38
2024-01-21T20:45:20.834Z,-4.23
2024-01-21T20:48:23.309Z,-4.23
2024-01-21T20:51:25.750Z,-4.21
2024-01-21T20:54:32.845Z,-4.44
2024-01-21T20:57:35.471Z,-4.11
2024-01-21T21:00:38.152Z,-4.22
2024-01-21T21:03:40.673Z,-4.06
2024-01-21T21:06:43.520Z,-3.99
2024-01-21T21:09:46.303Z,-3.75
2024-01-21T21:12:49.546Z,-3.56
2024-01-21T21:15:52.002Z,-3.59
2024-01-21T21:18:55.179Z,-3.29
2024-01-21T21:21:57.665Z,-3.28
2024-01-21T21:25:00.068Z,-3.38
2024-01-21T21:28:02.458Z,-3.53
2024-01-21T21:31:04.865Z,-3.32
2024-01-21T21:34:07.410Z,-3.21
2024-01-21T21:37:09.901Z,-3.23
2024-01-21T21:40:12.842Z,-3.21
2024-01-21T21:43:15.497Z,-3.44
2024-01-21T21:46:18.310Z,-3.30
2024-01-21T21:49:22.476Z,-3.26
2024-01-21T21:52:25.407Z,-3.54
2024-01-21T21:55:29.132Z,-3.45
2024-01-21T21:58:32.449Z,-3.33
2024-01-21T22:01:34.965Z,-3.48
2024-01-21T22:04:37.657Z,-3.72
2024-01-21T22:07:40.366Z,-3.70
2024-01-21T22:10:43.320Z,-3.98
2024-01-21T22:13:45.855Z,-3.71
2024-01-21T22:16:49.543Z,-4.09
2024-01-21T22:19:52.006Z,-4.10
2024-01-21T22:22:54.526Z,-4.38
2024-01-21T22:25:56.966Z,-4.28
2024-01-21T22:28:59.374Z,-4.22
2024-01-21T22:32:02.453Z,-4.10
2024-01-21T22:35:05.107Z,-4.28
2024-01-21T22:38:07.532Z,-4.43
2024-01-21T22:41:09.980Z,-4.24
2024-01-21T22:44:12.344Z,-4.36
2024-01-21T22:47:14.816Z,-4.28
2024-01-21T22:50:17.206Z,-4.37
2024-01-21T22:53:20.895Z,-4.29
2024-01-21T22:56:24.480Z,-4.39
2024-01-21T22:59:26.890Z,-4.69
2024-01-21T23:02:29.226Z,-4.75
2024-01-21T23:05:31.634Z,-4.89
2024-01-21T23:08:34.106Z,-4.96
2024-01-21T23:11:36.779Z,-4.90
2024-01-21T23:14:39.255Z,-4.82
2024-01-21T23:17:41.850Z,-4.78
2024-01-21T23:20:44.311Z,-4.98
2024-01-21T23:23:46.926Z,-5.03
2024-01-21T23:26:49.335Z,-5.02
2024-01-21T23:29:51.769Z,-4.76
2024-01-21T23:32:54.337Z,-4.50
2024-01-21T23:35:56.880Z,-4.32
2024-01-21T23:38:59.335Z,-4.48
2024-01-21T23:42:01.780Z,-4.50
2024-01-21T23:45:04.957Z,-4.51
2024-01-21T23:48:07.820Z,-4.39
2024-01-21T23:51:10.449Z,-4.64
2024-01-21T23:54:13.565Z,-4.45
2024-01-21T23:57:16.088Z,-4.50
